Blue Vision — MRNB — position and weather

sailwx.info

Track history (hours):
 
Tides and Currents Weather Stations Pressure Air Temp Water Temp Dewpoint Dewpoint Depression Visibility Wind Speed Wind Dir Waves Ship Positions

Blue Vision

Last reported at 2017-Aug-18 19:33 UTC. Time now 2017-Aug-19 05:25 UTC.
Position N 38°51' E 001°19'.

Length 45 m; draft 3 m.

Type: Pleasure craft. MMSI: 235054475.

Date/timePositionNaut miles runAvg speedWind from/ knotsBaromVisibWave heightAir tempDewpointWater temp
2017-Aug-18 19:33N 38°51' E 001°19'213.9
2017-Aug-18 19:23N 38°50' E 001°22'410.9
2017-Aug-18 19:00N 38°50' E 001°27'713.8
2017-Aug-18 18:31N 38°55' E 001°33'713.2
2017-Aug-18 18:00N 39°01' E 001°38'2 2.7
2017-Aug-18 17:26N 39°02' E 001°37'0 0.0
2017-Aug-18 16:51N 39°02' E 001°37'0 0.0
2017-Aug-18 16:30N 39°02' E 001°37'0 0.0
2017-Aug-18 16:00N 39°02' E 001°37'0 0.0
2017-Aug-18 15:30N 39°02' E 001°37'0 0.0
2017-Aug-18 15:00N 39°02' E 001°37'0 0.0
2017-Aug-18 14:30N 39°02' E 001°37'0 0.0
2017-Aug-18 13:30N 39°02' E 001°37'0 0.0
2017-Aug-18 13:00N 39°02' E 001°37'0 0.0
2017-Aug-18 12:30N 39°02' E 001°37'0 0.0
2017-Aug-18 12:00N 39°02' E 001°37'0 0.0
2017-Aug-18 11:30N 39°02' E 001°37'0 0.0
2017-Aug-18 11:00N 39°02' E 001°37'0 0.0
2017-Aug-18 10:30N 39°02' E 001°37'0 0.0
2017-Aug-18 09:59N 39°02' E 001°37'0 0.3
2017-Aug-18 09:30N 39°02' E 001°37'610.2
2017-Aug-18 08:54N 38°57' E 001°33'512.5
2017-Aug-18 08:30N 38°54' E 001°28'1 2.5
2017-Aug-18 07:59N 38°55' E 001°27'0 0.0
2017-Aug-18 07:29N 38°55' E 001°27'0 0.0
2017-Aug-18 06:59N 38°55' E 001°27'0 0.0
2017-Aug-18 06:29N 38°55' E 001°27'0 0.0
2017-Aug-18 05:59N 38°55' E 001°27'0 0.0
2017-Aug-18 05:29N 38°55' E 001°27'0 0.0
2017-Aug-18 04:59N 38°55' E 001°27'0 0.0
2017-Aug-18 04:29N 38°55' E 001°27'0 0.0
2017-Aug-18 03:59N 38°55' E 001°27'0 0.0
2017-Aug-18 03:29N 38°55' E 001°27'0 0.0
2017-Aug-18 02:59N 38°55' E 001°27'0 0.0
2017-Aug-18 02:29N 38°55' E 001°27'0 0.0
2017-Aug-18 01:59N 38°55' E 001°27'0 0.0
2017-Aug-18 01:29N 38°55' E 001°27'0 0.0
2017-Aug-18 00:59N 38°55' E 001°27'0 0.0
2017-Aug-18 00:29N 38°55' E 001°27'0 0.0
2017-Aug-17 23:59N 38°55' E 001°27'0 0.0
2017-Aug-17 23:29N 38°55' E 001°27'0 0.0
2017-Aug-17 22:59N 38°55' E 001°27'0 0.0
2017-Aug-17 22:29N 38°55' E 001°27'0 0.0
2017-Aug-17 21:59N 38°55' E 001°27'0 0.0
2017-Aug-17 21:29N 38°55' E 001°27'0 0.0
2017-Aug-17 20:59N 38°55' E 001°27'0 0.0
2017-Aug-17 20:29N 38°55' E 001°27'0 0.0
2017-Aug-17 19:59N 38°55' E 001°27'0 0.0
2017-Aug-17 19:29N 38°55' E 001°27'0 0.0
2017-Aug-17 18:59N 38°55' E 001°27'0 0.0
2017-Aug-17 18:29N 38°55' E 001°27'0 0.1
2017-Aug-17 17:55N 38°55' E 001°27'410.2
2017-Aug-17 17:29N 38°50' E 001°26'5 9.5
2017-Aug-17 16:58N 38°50' E 001°20'  
2017-Aug-14 16:47N 38°60' E 001°13'1211.5
2017-Aug-14 15:44N 38°49' E 001°18'312.9
2017-Aug-14 15:28N 38°47' E 001°22'3 4.8
2017-Aug-14 14:44N 38°45' E 001°25'0 0.0
2017-Aug-14 08:06N 38°45' E 001°25'7 0.4
2017-Aug-13 16:45N 38°50' E 001°21'2 4.5
2017-Aug-13 16:19N 38°52' E 001°20'0 0.0
2017-Aug-13 16:00N 38°52' E 001°20'0 0.0
2017-Aug-13 15:28N 38°52' E 001°20'0 0.0
2017-Aug-13 14:57N 38°52' E 001°20'0 0.0
2017-Aug-13 14:30N 38°52' E 001°20'0 0.0
2017-Aug-13 13:52N 38°52' E 001°20'0 0.0
2017-Aug-13 13:28N 38°52' E 001°20'0 0.0
2017-Aug-13 12:59N 38°52' E 001°20'0 0.0
2017-Aug-13 12:28N 38°52' E 001°20'0 0.0
2017-Aug-13 11:59N 38°52' E 001°20'5 5.0
2017-Aug-13 11:00N 38°53' E 001°27'1 2.8
2017-Aug-13 10:29N 38°55' E 001°27'0 0.0
2017-Aug-13 08:56N 38°55' E 001°27'0 0.0
2017-Aug-13 08:29N 38°55' E 001°27'0 0.0
2017-Aug-13 07:59N 38°55' E 001°27'0 0.0
2017-Aug-13 07:29N 38°55' E 001°27'0 0.0
2017-Aug-13 06:59N 38°55' E 001°27'0 0.0
2017-Aug-13 06:26N 38°55' E 001°27'0 0.0
2017-Aug-13 05:59N 38°55' E 001°27'0 0.0
2017-Aug-13 05:29N 38°55' E 001°27'0 0.0
2017-Aug-13 04:53N 38°55' E 001°27'0 0.0
2017-Aug-13 04:29N 38°55' E 001°27'0 0.0
2017-Aug-13 03:53N 38°55' E 001°27'0 0.0
2017-Aug-13 03:29N 38°55' E 001°27'0 0.0
2017-Aug-13 02:59N 38°55' E 001°27'0 0.0
2017-Aug-13 02:29N 38°55' E 001°27'0 0.0
2017-Aug-13 01:59N 38°55' E 001°27'0 0.0
2017-Aug-13 01:29N 38°55' E 001°27'0 0.0
2017-Aug-13 00:59N 38°55' E 001°27'0 0.0
2017-Aug-13 00:29N 38°55' E 001°27'0 0.0
2017-Aug-12 23:59N 38°55' E 001°27'0 0.0
2017-Aug-12 23:29N 38°55' E 001°27'0 0.0
2017-Aug-12 22:59N 38°55' E 001°27'0 0.0
2017-Aug-12 22:29N 38°55' E 001°27'0 0.0
2017-Aug-12 21:56N 38°55' E 001°27'0 0.0
2017-Aug-12 21:26N 38°55' E 001°27'0 0.0
2017-Aug-12 20:59N 38°55' E 001°27'0 0.0
2017-Aug-12 20:29N 38°55' E 001°27'0 0.0
2017-Aug-12 19:59N 38°55' E 001°27'0 0.0
2017-Aug-12 19:23N 38°55' E 001°27'0 0.0
2017-Aug-12 18:56N 38°55' E 001°27'0 0.0
2017-Aug-12 18:29N 38°55' E 001°27'0 0.0
2017-Aug-12 17:59N 38°55' E 001°27'0 0.0
2017-Aug-12 17:29N 38°55' E 001°27'0 0.0
2017-Aug-12 16:56N 38°55' E 001°27'0 0.0
2017-Aug-12 16:29N 38°55' E 001°27'0 0.0
2017-Aug-12 15:59N 38°55' E 001°27'0 0.0
2017-Aug-12 15:29N 38°55' E 001°27'0 0.0
2017-Aug-12 14:59N 38°55' E 001°27'0 0.0
2017-Aug-12 14:29N 38°55' E 001°27'0 0.0
2017-Aug-12 13:58N 38°55' E 001°27'0 0.0
2017-Aug-12 13:29N 38°55' E 001°27'0 0.0
2017-Aug-12 12:59N 38°55' E 001°27'0 0.0
2017-Aug-12 12:29N 38°55' E 001°27'0 0.0
2017-Aug-12 11:59N 38°55' E 001°27'0 0.0
2017-Aug-12 11:29N 38°55' E 001°27'0 0.0
2017-Aug-12 10:59N 38°55' E 001°27'0 0.0
2017-Aug-12 10:29N 38°55' E 001°27'0 0.0
2017-Aug-12 09:59N 38°55' E 001°27'0 0.0
2017-Aug-12 09:29N 38°55' E 001°27'0 0.0
2017-Aug-12 08:59N 38°55' E 001°27'0 0.0
2017-Aug-12 08:29N 38°55' E 001°27'0 0.0
2017-Aug-12 07:59N 38°55' E 001°27'0 0.0
2017-Aug-12 07:26N 38°55' E 001°27'0 0.0
2017-Aug-12 06:58N 38°55' E 001°27'0 0.0
2017-Aug-12 06:29N 38°55' E 001°27'0 0.0
2017-Aug-12 05:59N 38°55' E 001°27'0 0.0
2017-Aug-12 05:20N 38°55' E 001°27'0 0.0
2017-Aug-12 04:59N 38°55' E 001°27'0 0.0
2017-Aug-12 04:29N 38°55' E 001°27'0 0.0
2017-Aug-12 03:58N 38°55' E 001°27'0 0.0
2017-Aug-12 03:26N 38°55' E 001°27'0 0.0
2017-Aug-12 02:59N 38°55' E 001°27'0 0.0
2017-Aug-12 02:29N 38°55' E 001°27'0 0.0
2017-Aug-12 01:59N 38°55' E 001°27'0 0.0
2017-Aug-12 01:28N 38°55' E 001°27'0 0.0
2017-Aug-12 00:59N 38°55' E 001°27'0 0.0
2017-Aug-12 00:25N 38°55' E 001°27'0 0.0
2017-Aug-11 23:59N 38°55' E 001°27'0 0.0
2017-Aug-11 23:29N 38°55' E 001°27'0 0.0
2017-Aug-11 22:59N 38°55' E 001°27'0 0.0
2017-Aug-11 22:28N 38°55' E 001°27'0 0.0
2017-Aug-11 21:59N 38°55' E 001°27'0 0.0
2017-Aug-11 21:29N 38°55' E 001°27'0 0.0
2017-Aug-11 20:59N 38°55' E 001°27'0 0.0
2017-Aug-11 20:28N 38°55' E 001°27'0 0.0
2017-Aug-11 19:59N 38°55' E 001°27'0 0.0
2017-Aug-11 19:29N 38°55' E 001°27'0 0.0
2017-Aug-11 18:59N 38°55' E 001°27'0 0.0
2017-Aug-11 18:29N 38°55' E 001°27'0 0.0
2017-Aug-11 17:59N 38°55' E 001°27'0 0.0
2017-Aug-11 17:28N 38°55' E 001°27'0 0.0
2017-Aug-11 16:59N 38°55' E 001°27'0 0.0
2017-Aug-11 16:26N 38°55' E 001°27'0 0.0
2017-Aug-11 15:59N 38°55' E 001°27'0 0.0
2017-Aug-11 15:29N 38°55' E 001°27'0 0.0
2017-Aug-11 14:59N 38°55' E 001°27'0 0.0
2017-Aug-11 13:59N 38°55' E 001°27'0 0.0
2017-Aug-11 13:29N 38°55' E 001°27'0 0.0
2017-Aug-11 12:59N 38°55' E 001°27'0 0.0
2017-Aug-11 12:25N 38°55' E 001°27'0 0.0
2017-Aug-11 11:59N 38°55' E 001°27'0 0.0
2017-Aug-11 11:29N 38°55' E 001°27'0 0.2
2017-Aug-11 10:59N 38°55' E 001°27'1 3.1
2017-Aug-11 10:31N 38°54' E 001°25'0 0.0
2017-Aug-11 09:59N 38°54' E 001°25'0 0.0
2017-Aug-11 09:30N 38°54' E 001°25'2 3.4
2017-Aug-11 09:00N 38°52' E 001°25'3 4.5
2017-Aug-11 08:22N 38°51' E 001°22'0 0.0
2017-Aug-11 07:43N 38°51' E 001°22'0 0.0
2017-Aug-11 07:28N 38°51' E 001°22'0 0.0
2017-Aug-11 06:58N 38°51' E 001°22'0 0.0
2017-Aug-11 06:29N 38°51' E 001°22'0 0.0
2017-Aug-11 05:54N 38°51' E 001°22'0 0.0
2017-Aug-11 05:25N 38°51' E 001°22'0 0.0
2017-Aug-11 05:00N 38°51' E 001°22'0 0.0
2017-Aug-11 04:30N 38°51' E 001°22'0 0.0
2017-Aug-11 04:00N 38°51' E 001°22'0 0.0
2017-Aug-11 03:24N 38°51' E 001°22'0 0.0
2017-Aug-11 02:58N 38°51' E 001°22'0 0.0
2017-Aug-11 02:18N 38°51' E 001°22'0 0.0
2017-Aug-11 01:49N 38°51' E 001°22'0 0.0
2017-Aug-11 01:17N 38°51' E 001°22'0 0.0
2017-Aug-11 00:58N 38°51' E 001°22'0 0.0
2017-Aug-11 00:30N 38°51' E 001°22'0 0.0
2017-Aug-10 23:50N 38°51' E 001°22'0 0.0
2017-Aug-10 23:29N 38°51' E 001°22'0 0.0
2017-Aug-10 22:58N 38°51' E 001°22'0 0.0
2017-Aug-10 22:29N 38°51' E 001°22'0 0.0
2017-Aug-10 21:57N 38°51' E 001°22'0 0.0
2017-Aug-10 21:27N 38°51' E 001°22'0 0.0
2017-Aug-10 20:59N 38°51' E 001°22'0 0.0
2017-Aug-10 20:26N 38°51' E 001°22'0 0.0
2017-Aug-10 19:59N 38°51' E 001°22'0 0.0
2017-Aug-10 19:30N 38°51' E 001°22'0 0.0
2017-Aug-10 19:00N 38°51' E 001°22'0 0.0
2017-Aug-10 18:30N 38°51' E 001°22'2 3.0
2017-Aug-10 17:55N 38°51' E 001°20'0 0.0
2017-Aug-09 20:21N 38°51' E 001°19'1 0.1
2017-Aug-09 10:48N 38°50' E 001°19'2 4.9
2017-Aug-09 10:27N 38°52' E 001°20'0 0.3
2017-Aug-09 09:04N 38°52' E 001°20'  
Track history (hours):
 
Tides and Currents Weather Stations Pressure Air Temp Water Temp Dewpoint Dewpoint Depression Visibility Wind Speed Wind Dir Waves Ship Positions

Blue Vision

Last reported at 2017-Aug-18 19:33 UTC. Time now 2017-Aug-19 05:25 UTC.
Position N 38°51' E 001°19'.

Length 45 m; draft 3 m.

Type: Pleasure craft. MMSI: 235054475.

Date/timePositionNaut miles runAvg speedWind from/ knotsBaromVisibWave heightAir tempDewpointWater temp
2017-Aug-18 19:33N 38°51' E 001°19'213.9
2017-Aug-18 19:23N 38°50' E 001°22'410.9
2017-Aug-18 19:00N 38°50' E 001°27'713.8
2017-Aug-18 18:31N 38°55' E 001°33'713.2
2017-Aug-18 18:00N 39°01' E 001°38'2 2.7
2017-Aug-18 17:26N 39°02' E 001°37'0 0.0
2017-Aug-18 16:51N 39°02' E 001°37'0 0.0
2017-Aug-18 16:30N 39°02' E 001°37'0 0.0
2017-Aug-18 16:00N 39°02' E 001°37'0 0.0
2017-Aug-18 15:30N 39°02' E 001°37'0 0.0
2017-Aug-18 15:00N 39°02' E 001°37'0 0.0
2017-Aug-18 14:30N 39°02' E 001°37'0 0.0
2017-Aug-18 13:30N 39°02' E 001°37'0 0.0
2017-Aug-18 13:00N 39°02' E 001°37'0 0.0
2017-Aug-18 12:30N 39°02' E 001°37'0 0.0
2017-Aug-18 12:00N 39°02' E 001°37'0 0.0
2017-Aug-18 11:30N 39°02' E 001°37'0 0.0
2017-Aug-18 11:00N 39°02' E 001°37'0 0.0
2017-Aug-18 10:30N 39°02' E 001°37'0 0.0
2017-Aug-18 09:59N 39°02' E 001°37'0 0.3
2017-Aug-18 09:30N 39°02' E 001°37'610.2
2017-Aug-18 08:54N 38°57' E 001°33'512.5
2017-Aug-18 08:30N 38°54' E 001°28'1 2.5
2017-Aug-18 07:59N 38°55' E 001°27'0 0.0
2017-Aug-18 07:29N 38°55' E 001°27'0 0.0
2017-Aug-18 06:59N 38°55' E 001°27'0 0.0
2017-Aug-18 06:29N 38°55' E 001°27'0 0.0
2017-Aug-18 05:59N 38°55' E 001°27'0 0.0
2017-Aug-18 05:29N 38°55' E 001°27'0 0.0
2017-Aug-18 04:59N 38°55' E 001°27'0 0.0
2017-Aug-18 04:29N 38°55' E 001°27'0 0.0
2017-Aug-18 03:59N 38°55' E 001°27'0 0.0
2017-Aug-18 03:29N 38°55' E 001°27'0 0.0
2017-Aug-18 02:59N 38°55' E 001°27'0 0.0
2017-Aug-18 02:29N 38°55' E 001°27'0 0.0
2017-Aug-18 01:59N 38°55' E 001°27'0 0.0
2017-Aug-18 01:29N 38°55' E 001°27'0 0.0
2017-Aug-18 00:59N 38°55' E 001°27'0 0.0
2017-Aug-18 00:29N 38°55' E 001°27'0 0.0
2017-Aug-17 23:59N 38°55' E 001°27'0 0.0
2017-Aug-17 23:29N 38°55' E 001°27'0 0.0
2017-Aug-17 22:59N 38°55' E 001°27'0 0.0
2017-Aug-17 22:29N 38°55' E 001°27'0 0.0
2017-Aug-17 21:59N 38°55' E 001°27'0 0.0
2017-Aug-17 21:29N 38°55' E 001°27'0 0.0
2017-Aug-17 20:59N 38°55' E 001°27'0 0.0
2017-Aug-17 20:29N 38°55' E 001°27'0 0.0
2017-Aug-17 19:59N 38°55' E 001°27'0 0.0
2017-Aug-17 19:29N 38°55' E 001°27'0 0.0
2017-Aug-17 18:59N 38°55' E 001°27'0 0.0
2017-Aug-17 18:29N 38°55' E 001°27'0 0.1
2017-Aug-17 17:55N 38°55' E 001°27'410.2
2017-Aug-17 17:29N 38°50' E 001°26'5 9.5
2017-Aug-17 16:58N 38°50' E 001°20'  
2017-Aug-14 16:47N 38°60' E 001°13'1211.5
2017-Aug-14 15:44N 38°49' E 001°18'312.9
2017-Aug-14 15:28N 38°47' E 001°22'3 4.8
2017-Aug-14 14:44N 38°45' E 001°25'0 0.0
2017-Aug-14 08:06N 38°45' E 001°25'7 0.4
2017-Aug-13 16:45N 38°50' E 001°21'2 4.5
2017-Aug-13 16:19N 38°52' E 001°20'0 0.0
2017-Aug-13 16:00N 38°52' E 001°20'0 0.0
2017-Aug-13 15:28N 38°52' E 001°20'0 0.0
2017-Aug-13 14:57N 38°52' E 001°20'0 0.0
2017-Aug-13 14:30N 38°52' E 001°20'0 0.0
2017-Aug-13 13:52N 38°52' E 001°20'0 0.0
2017-Aug-13 13:28N 38°52' E 001°20'0 0.0
2017-Aug-13 12:59N 38°52' E 001°20'0 0.0
2017-Aug-13 12:28N 38°52' E 001°20'0 0.0
2017-Aug-13 11:59N 38°52' E 001°20'5 5.0
2017-Aug-13 11:00N 38°53' E 001°27'1 2.8
2017-Aug-13 10:29N 38°55' E 001°27'0 0.0
2017-Aug-13 08:56N 38°55' E 001°27'0 0.0
2017-Aug-13 08:29N 38°55' E 001°27'0 0.0
2017-Aug-13 07:59N 38°55' E 001°27'0 0.0
2017-Aug-13 07:29N 38°55' E 001°27'0 0.0
2017-Aug-13 06:59N 38°55' E 001°27'0 0.0
2017-Aug-13 06:26N 38°55' E 001°27'0 0.0
2017-Aug-13 05:59N 38°55' E 001°27'0 0.0
2017-Aug-13 05:29N 38°55' E 001°27'0 0.0
2017-Aug-13 04:53N 38°55' E 001°27'0 0.0
2017-Aug-13 04:29N 38°55' E 001°27'0 0.0
2017-Aug-13 03:53N 38°55' E 001°27'0 0.0
2017-Aug-13 03:29N 38°55' E 001°27'0 0.0
2017-Aug-13 02:59N 38°55' E 001°27'0 0.0
2017-Aug-13 02:29N 38°55' E 001°27'0 0.0
2017-Aug-13 01:59N 38°55' E 001°27'0 0.0
2017-Aug-13 01:29N 38°55' E 001°27'0 0.0
2017-Aug-13 00:59N 38°55' E 001°27'0 0.0
2017-Aug-13 00:29N 38°55' E 001°27'0 0.0
2017-Aug-12 23:59N 38°55' E 001°27'0 0.0
2017-Aug-12 23:29N 38°55' E 001°27'0 0.0
2017-Aug-12 22:59N 38°55' E 001°27'0 0.0
2017-Aug-12 22:29N 38°55' E 001°27'0 0.0
2017-Aug-12 21:56N 38°55' E 001°27'0 0.0
2017-Aug-12 21:26N 38°55' E 001°27'0 0.0
2017-Aug-12 20:59N 38°55' E 001°27'0 0.0
2017-Aug-12 20:29N 38°55' E 001°27'0 0.0
2017-Aug-12 19:59N 38°55' E 001°27'0 0.0
2017-Aug-12 19:23N 38°55' E 001°27'0 0.0
2017-Aug-12 18:56N 38°55' E 001°27'0 0.0
2017-Aug-12 18:29N 38°55' E 001°27'0 0.0
2017-Aug-12 17:59N 38°55' E 001°27'0 0.0
2017-Aug-12 17:29N 38°55' E 001°27'0 0.0
2017-Aug-12 16:56N 38°55' E 001°27'0 0.0
2017-Aug-12 16:29N 38°55' E 001°27'0 0.0
2017-Aug-12 15:59N 38°55' E 001°27'0 0.0
2017-Aug-12 15:29N 38°55' E 001°27'0 0.0
2017-Aug-12 14:59N 38°55' E 001°27'0 0.0
2017-Aug-12 14:29N 38°55' E 001°27'0 0.0
2017-Aug-12 13:58N 38°55' E 001°27'0 0.0
2017-Aug-12 13:29N 38°55' E 001°27'0 0.0
2017-Aug-12 12:59N 38°55' E 001°27'0 0.0
2017-Aug-12 12:29N 38°55' E 001°27'0 0.0
2017-Aug-12 11:59N 38°55' E 001°27'0 0.0
2017-Aug-12 11:29N 38°55' E 001°27'0 0.0
2017-Aug-12 10:59N 38°55' E 001°27'0 0.0
2017-Aug-12 10:29N 38°55' E 001°27'0 0.0
2017-Aug-12 09:59N 38°55' E 001°27'0 0.0
2017-Aug-12 09:29N 38°55' E 001°27'0 0.0
2017-Aug-12 08:59N 38°55' E 001°27'0 0.0
2017-Aug-12 08:29N 38°55' E 001°27'0 0.0
2017-Aug-12 07:59N 38°55' E 001°27'0 0.0
2017-Aug-12 07:26N 38°55' E 001°27'0 0.0
2017-Aug-12 06:58N 38°55' E 001°27'0 0.0
2017-Aug-12 06:29N 38°55' E 001°27'0 0.0
2017-Aug-12 05:59N 38°55' E 001°27'0 0.0
2017-Aug-12 05:20N 38°55' E 001°27'0 0.0
2017-Aug-12 04:59N 38°55' E 001°27'0 0.0
2017-Aug-12 04:29N 38°55' E 001°27'0 0.0
2017-Aug-12 03:58N 38°55' E 001°27'0 0.0
2017-Aug-12 03:26N 38°55' E 001°27'0 0.0
2017-Aug-12 02:59N 38°55' E 001°27'0 0.0
2017-Aug-12 02:29N 38°55' E 001°27'0 0.0
2017-Aug-12 01:59N 38°55' E 001°27'0 0.0
2017-Aug-12 01:28N 38°55' E 001°27'0 0.0
2017-Aug-12 00:59N 38°55' E 001°27'0 0.0
2017-Aug-12 00:25N 38°55' E 001°27'0 0.0
2017-Aug-11 23:59N 38°55' E 001°27'0 0.0
2017-Aug-11 23:29N 38°55' E 001°27'0 0.0
2017-Aug-11 22:59N 38°55' E 001°27'0 0.0
2017-Aug-11 22:28N 38°55' E 001°27'0 0.0
2017-Aug-11 21:59N 38°55' E 001°27'0 0.0
2017-Aug-11 21:29N 38°55' E 001°27'0 0.0
2017-Aug-11 20:59N 38°55' E 001°27'0 0.0
2017-Aug-11 20:28N 38°55' E 001°27'0 0.0
2017-Aug-11 19:59N 38°55' E 001°27'0 0.0
2017-Aug-11 19:29N 38°55' E 001°27'0 0.0
2017-Aug-11 18:59N 38°55' E 001°27'0 0.0
2017-Aug-11 18:29N 38°55' E 001°27'0 0.0
2017-Aug-11 17:59N 38°55' E 001°27'0 0.0
2017-Aug-11 17:28N 38°55' E 001°27'0 0.0
2017-Aug-11 16:59N 38°55' E 001°27'0 0.0
2017-Aug-11 16:26N 38°55' E 001°27'0 0.0
2017-Aug-11 15:59N 38°55' E 001°27'0 0.0
2017-Aug-11 15:29N 38°55' E 001°27'0 0.0
2017-Aug-11 14:59N 38°55' E 001°27'0 0.0
2017-Aug-11 13:59N 38°55' E 001°27'0 0.0
2017-Aug-11 13:29N 38°55' E 001°27'0 0.0
2017-Aug-11 12:59N 38°55' E 001°27'0 0.0
2017-Aug-11 12:25N 38°55' E 001°27'0 0.0
2017-Aug-11 11:59N 38°55' E 001°27'0 0.0
2017-Aug-11 11:29N 38°55' E 001°27'0 0.2
2017-Aug-11 10:59N 38°55' E 001°27'1 3.1
2017-Aug-11 10:31N 38°54' E 001°25'0 0.0
2017-Aug-11 09:59N 38°54' E 001°25'0 0.0
2017-Aug-11 09:30N 38°54' E 001°25'2 3.4
2017-Aug-11 09:00N 38°52' E 001°25'3 4.5
2017-Aug-11 08:22N 38°51' E 001°22'0 0.0
2017-Aug-11 07:43N 38°51' E 001°22'0 0.0
2017-Aug-11 07:28N 38°51' E 001°22'0 0.0
2017-Aug-11 06:58N 38°51' E 001°22'0 0.0
2017-Aug-11 06:29N 38°51' E 001°22'0 0.0
2017-Aug-11 05:54N 38°51' E 001°22'0 0.0
2017-Aug-11 05:25N 38°51' E 001°22'0 0.0
2017-Aug-11 05:00N 38°51' E 001°22'0 0.0
2017-Aug-11 04:30N 38°51' E 001°22'0 0.0
2017-Aug-11 04:00N 38°51' E 001°22'0 0.0
2017-Aug-11 03:24N 38°51' E 001°22'0 0.0
2017-Aug-11 02:58N 38°51' E 001°22'0 0.0
2017-Aug-11 02:18N 38°51' E 001°22'0 0.0
2017-Aug-11 01:49N 38°51' E 001°22'0 0.0
2017-Aug-11 01:17N 38°51' E 001°22'0 0.0
2017-Aug-11 00:58N 38°51' E 001°22'0 0.0
2017-Aug-11 00:30N 38°51' E 001°22'0 0.0
2017-Aug-10 23:50N 38°51' E 001°22'0 0.0
2017-Aug-10 23:29N 38°51' E 001°22'0 0.0
2017-Aug-10 22:58N 38°51' E 001°22'0 0.0
2017-Aug-10 22:29N 38°51' E 001°22'0 0.0
2017-Aug-10 21:57N 38°51' E 001°22'0 0.0
2017-Aug-10 21:27N 38°51' E 001°22'0 0.0
2017-Aug-10 20:59N 38°51' E 001°22'0 0.0
2017-Aug-10 20:26N 38°51' E 001°22'0 0.0
2017-Aug-10 19:59N 38°51' E 001°22'0 0.0
2017-Aug-10 19:30N 38°51' E 001°22'0 0.0
2017-Aug-10 19:00N 38°51' E 001°22'0 0.0
2017-Aug-10 18:30N 38°51' E 001°22'2 3.0
2017-Aug-10 17:55N 38°51' E 001°20'0 0.0
2017-Aug-09 20:21N 38°51' E 001°19'1 0.1
2017-Aug-09 10:48N 38°50' E 001°19'2 4.9
2017-Aug-09 10:27N 38°52' E 001°20'0 0.3
2017-Aug-09 09:04N 38°52' E 001°20'  

Dump ship's entire track history